Time;durP1;ratioP1;P1;durP2;ratioP2;P2;SDS_P1;SDS_P2;PMS_P1;PMS_P2;Temp;Humidity;BMP_temperature;BMP_pressure;BME280_temperature;BME280_humidity;BME280_pressure;Samples;Min_cycle;Max_cycle;Signal;HPM_P1;HPM_P2
2023/12/17 00:02:02;;;;;;;28.80;20.43;;;;;;;;;;5014575;28;20032;-51
2023/12/17 00:04:28;;;;;;;29.50;20.60;;;;;;;;;;5013213;28;20104;-52
2023/12/17 00:06:54;;;;;;;26.42;20.08;;;;;;;;;;5014383;28;20431;-53
2023/12/17 00:09:20;;;;;;;24.60;19.17;;;;;;;;;;5014410;28;20022;-52
2023/12/17 00:11:46;;;;;;;31.75;20.90;;;;;;;;;;5014489;28;20037;-51
2023/12/17 00:14:12;;;;;;;26.93;19.77;;;;;;;;;;5014298;28;20106;-51
2023/12/17 00:16:39;;;;;;;27.97;20.37;;;;;;;;;;5014266;28;20045;-53
2023/12/17 00:19:05;;;;;;;30.30;21.48;;;;;;;;;;5014276;28;20152;-53
2023/12/17 00:21:30;;;;;;;30.27;20.40;;;;;;;;;;5014550;28;20041;-53
2023/12/17 00:23:56;;;;;;;30.83;21.00;;;;;;;;;;5026083;28;20104;-54
2023/12/17 00:26:22;;;;;;;27.30;20.25;;;;;;;;;;5016208;28;20030;-52
2023/12/17 00:28:48;;;;;;;27.45;20.48;;;;;;;;;;5013401;28;20065;-53
2023/12/17 00:31:14;;;;;;;30.10;20.77;;;;;;;;;;5014307;28;20464;-56
2023/12/17 00:33:40;;;;;;;29.80;22.03;;;;;;;;;;5014093;28;20053;-52
2023/12/17 00:36:06;;;;;;;31.37;22.40;;;;;;;;;;5013788;28;20022;-50
2023/12/17 00:38:32;;;;;;;29.60;21.47;;;;;;;;;;5014050;28;20029;-53
2023/12/17 00:40:58;;;;;;;30.38;22.45;;;;;;;;;;5013794;28;20022;-53
2023/12/17 00:43:24;;;;;;;29.40;21.43;;;;;;;;;;5013758;28;20037;-51
2023/12/17 00:45:50;;;;;;;31.57;21.27;;;;;;;;;;5014019;28;20131;-54
2023/12/17 00:48:16;;;;;;;30.37;22.10;;;;;;;;;;5013668;28;20033;-52
2023/12/17 00:50:42;;;;;;;27.87;21.27;;;;;;;;;;5014170;28;20022;-54
2023/12/17 00:53:08;;;;;;;36.20;22.80;;;;;;;;;;5013874;28;20038;-55
2023/12/17 00:55:34;;;;;;;29.10;22.17;;;;;;;;;;5001262;28;20144;-54
2023/12/17 00:58:00;;;;;;;34.10;21.93;;;;;;;;;;5013528;28;20434;-53
2023/12/17 01:00:26;;;;;;;31.03;21.20;;;;;;;;;;5013583;28;20034;-52
2023/12/17 01:02:52;;;;;;;27.07;21.13;;;;;;;;;;5013813;28;20034;-53
2023/12/17 01:05:18;;;;;;;34.90;22.63;;;;;;;;;;5012107;28;20052;-50
2023/12/17 01:07:44;;;;;;;31.60;22.40;;;;;;;;;;5012955;28;20034;-52
2023/12/17 01:10:10;;;;;;;32.00;21.80;;;;;;;;;;5013088;28;20038;-53
2023/12/17 01:12:36;;;;;;;29.30;21.20;;;;;;;;;;5013310;28;20069;-51
2023/12/17 01:15:02;;;;;;;27.87;21.27;;;;;;;;;;5013159;28;20189;-52
2023/12/17 01:17:28;;;;;;;31.07;21.23;;;;;;;;;;5013085;28;20103;-52
2023/12/17 01:19:54;;;;;;;30.57;22.37;;;;;;;;;;5011984;28;20034;-50
2023/12/17 01:22:20;;;;;;;31.80;22.73;;;;;;;;;;5013056;28;20109;-53
2023/12/17 01:24:49;;;;;;;32.80;22.37;;;;;;;;;;5026870;28;20022;-52
2023/12/17 01:27:15;;;;;;;27.33;20.60;;;25.80;99.90;;;;;;5012893;28;20472;-52
2023/12/17 01:29:40;;;;;;;28.03;20.97;;;24.30;99.90;;;;;;5012915;28;20101;-50
2023/12/17 01:32:06;;;;;;;27.17;20.27;;;24.00;99.90;;;;;;5004290;28;20068;-54
2023/12/17 01:34:56;;;;;;;26.67;19.67;;;24.10;99.90;;;;;;5013064;28;20021;-53
2023/12/17 01:37:22;;;;;;;24.30;20.17;;;24.00;99.90;;;;;;5012690;28;20063;-51
2023/12/17 01:39:47;;;;;;;23.70;19.07;;;24.10;99.90;;;;;;5012768;28;20029;-52
2023/12/17 01:42:13;;;;;;;21.80;18.90;;;24.00;99.90;;;;;;5012965;28;20416;-51
2023/12/17 01:44:38;;;;;;;25.83;20.10;;;24.00;99.90;;;;;;5012839;28;20084;-51
2023/12/17 01:47:04;;;;;;;25.23;18.93;;;24.00;99.90;;;;;;5012655;28;20038;-52
2023/12/17 01:49:30;;;;;;;21.23;18.43;;;24.00;99.90;;;;;;5012653;28;20037;-50
2023/12/17 01:51:56;;;;;;;23.33;18.27;;;23.90;99.90;;;;;;5012917;28;20491;-54
2023/12/17 01:54:22;;;;;;;20.00;17.90;;;23.90;99.90;;;;;;5012586;28;20048;-49
2023/12/17 01:56:48;;;;;;;20.37;17.33;;;;;;;;;;5012395;28;20506;-51
2023/12/17 01:59:14;;;;;;;22.93;18.73;;;;;;;;;;5012388;28;20034;-53
2023/12/17 02:01:43;;;;;;;20.23;16.50;;;;;;;;;;5011089;28;20029;-51
2023/12/17 02:04:09;;;;;;;21.23;17.40;;;;;;;;;;5012253;28;20104;-52
2023/12/17 02:06:35;;;;;;;21.77;18.60;;;;;;;;;;5012348;28;20065;-53
2023/12/17 02:09:01;;;;;;;19.23;17.17;;;;;;;;;;5011613;28;20033;-51
2023/12/17 02:11:27;;;;;;;18.00;16.10;;;;;;;;;;5011617;28;20033;-49
2023/12/17 02:13:53;;;;;;;18.40;16.57;;;;;;;;;;5009976;28;20096;-52
2023/12/17 02:16:19;;;;;;;19.90;17.00;;;;;;;;;;5010888;28;20414;-53
2023/12/17 02:18:45;;;;;;;17.90;15.73;;;;;;;;;;5011428;28;20040;-53
2023/12/17 02:21:11;;;;;;;21.10;18.00;;;;;;;;;;5010668;28;20034;-54
2023/12/17 02:23:37;;;;;;;19.97;16.47;;;;;;;;;;5011947;28;20097;-52
2023/12/17 02:26:06;;;;;;;19.67;17.37;;;;;;;;;;5012228;28;20030;-53
2023/12/17 02:28:32;;;;;;;20.10;16.67;;;;;;;;;;5011968;28;20053;-51
2023/12/17 02:30:58;;;;;;;18.70;15.80;;;;;;;;;;5012237;28;20371;-57
2023/12/17 02:33:24;;;;;;;21.93;16.40;;;;;;;;;;5011874;28;20041;-54
2023/12/17 02:35:50;;;;;;;20.73;16.10;;;;;;;;;;5012124;28;20034;-51
2023/12/17 02:38:16;;;;;;;19.80;16.47;;;;;;;;;;5011903;28;20480;-54
2023/12/17 02:40:45;;;;;;;17.63;15.83;;;;;;;;;;5011876;28;20022;-54
2023/12/17 02:43:11;;;;;;;19.60;16.63;;;;;;;;;;5011975;28;20030;-51
2023/12/17 02:45:37;;;;;;;17.97;16.07;;;;;;;;;;5011648;28;20471;-51
2023/12/17 02:48:03;;;;;;;19.93;16.77;;;;;;;;;;5022649;28;20472;-55
2023/12/17 02:50:29;;;;;;;20.10;17.00;;;;;;;;;;5014778;28;20109;-51
2023/12/17 02:52:55;;;;;;;20.13;17.33;;;;;;;;;;5011361;28;20407;-54
2023/12/17 02:55:21;;;;;;;19.87;17.73;;;;;;;;;;5008112;28;20026;-55
2023/12/17 02:57:47;;;;;;;23.00;18.10;;;;;;;;;;5012355;28;20025;-56
2023/12/17 03:00:14;;;;;;;23.07;17.60;;;;;;;;;;5006649;28;20427;-53
2023/12/17 03:02:40;;;;;;;21.97;18.93;;;;;;;;;;5014861;28;20048;-52
2023/12/17 03:05:06;;;;;;;20.40;16.50;;;;;;;;;;5010680;28;20026;-54
2023/12/17 03:07:32;;;;;;;21.57;17.87;;;;;;;;;;5014929;28;20041;-56
2023/12/17 03:09:58;;;;;;;23.93;18.03;;;;;;;;;;5020126;28;20136;-55
2023/12/17 03:12:24;;;;;;;21.40;17.30;;;;;;;;;;5023878;28;20084;-54
2023/12/17 03:14:50;;;;;;;21.73;17.23;;;;;;;;;;5024911;28;20060;-57
2023/12/17 03:17:16;;;;;;;24.90;18.13;;;;;;;;;;5011670;28;20467;-53
2023/12/17 03:19:42;;;;;;;21.23;17.47;;;;;;;;;;5011875;28;20049;-54
2023/12/17 03:22:08;;;;;;;21.27;18.03;;;;;;;;;;5014725;28;20030;-52
2023/12/17 03:24:34;;;;;;;24.67;18.10;;;;;;;;;;5031102;28;20029;-52
2023/12/17 03:27:00;;;;;;;21.87;17.17;;;;;;;;;;5029712;28;20078;-52
2023/12/17 03:29:26;;;;;;;23.77;17.90;;;;;;;;;;5011428;28;20025;-54
2023/12/17 03:31:52;;;;;;;24.40;17.90;;;;;;;;;;5013131;28;20030;-53
2023/12/17 03:34:17;;;;;;;21.43;17.47;;;;;;;;;;5015073;28;20495;-53
2023/12/17 03:36:43;;;;;;;21.37;17.80;;;;;;;;;;5015066;28;20057;-54
2023/12/17 03:39:09;;;;;;;23.00;18.37;;;;;;;;;;5017878;28;20104;-54
2023/12/17 03:41:35;;;;;;;21.57;16.63;;;;;;;;;;5025819;28;20022;-51
2023/12/17 03:44:01;;;;;;;21.53;17.93;;;;;;;;;;5014797;28;20620;-56
2023/12/17 03:46:27;;;;;;;24.30;18.37;;;;;;;;;;5014913;28;20041;-50
2023/12/17 03:48:53;;;;;;;21.83;18.87;;;;;;;;;;5014948;28;20026;-52
2023/12/17 03:51:19;;;;;;;20.47;17.47;;;;;;;;;;5014443;28;20026;-55
2023/12/17 03:53:45;;;;;;;19.23;16.47;;;;;;;;;;5015191;28;20018;-52
2023/12/17 03:56:12;;;;;;;22.17;16.57;;;;;;;;;;5014655;28;20018;-52
2023/12/17 03:58:39;;;;;;;22.90;17.60;;;;;;;;;;5014664;28;20384;-53
2023/12/17 04:01:05;;;;;;;23.37;18.07;;;;;;;;;;5014532;28;20018;-49
2023/12/17 04:03:32;;;;;;;21.90;17.80;;;;;;;;;;5014540;28;20026;-55
2023/12/17 04:05:59;;;;;;;22.13;18.80;;;;;;;;;;5014260;28;20034;-54
2023/12/17 04:08:25;;;;;;;22.83;18.97;;;;;;;;;;5014218;28;20168;-52
2023/12/17 04:10:51;;;;;;;27.07;18.50;;;;;;;;;;5014503;28;20034;-56
2023/12/17 04:13:18;;;;;;;24.60;19.23;;;;;;;;;;5016001;28;20065;-56
2023/12/17 04:15:44;;;;;;;20.70;17.83;;;;;;;;;;5024834;28;20390;-51
2023/12/17 04:18:10;;;;;;;20.80;16.70;;;;;;;;;;5012989;28;20379;-50
2023/12/17 04:20:36;;;;;;;20.17;17.00;;;;;;;;;;5014343;28;20030;-51
2023/12/17 04:23:02;;;;;;;22.17;17.17;;;;;;;;;;5014290;28;20135;-53
2023/12/17 04:25:28;;;;;;;20.40;16.03;;;;;;;;;;5014060;28;20022;-55
2023/12/17 04:27:54;;;;;;;22.20;17.57;;;;;;;;;;5014221;28;20168;-54
2023/12/17 04:30:19;;;;;;;22.33;17.53;;;;;;;;;;5012351;28;20029;-53
2023/12/17 04:32:45;;;;;;;20.63;16.13;;;;;;;;;;5014140;28;20034;-54
2023/12/17 04:35:11;;;;;;;19.23;16.23;;;;;;;;;;5010783;28;20040;-54
2023/12/17 04:37:37;;;;;;;22.07;17.00;;;;;;;;;;5005754;28;20073;-52
2023/12/17 04:40:04;;;;;;;20.40;17.50;;;;;;;;;;5013908;28;20112;-50
2023/12/17 04:42:30;;;;;;;22.13;16.93;;;;;;;;;;5013559;28;20057;-52
2023/12/17 04:44:56;;;;;;;21.27;16.97;;;;;;;;;;5013224;28;20542;-50
2023/12/17 04:47:21;;;;;;;26.07;18.90;;;;;;;;;;5013610;28;20053;-51
2023/12/17 04:49:47;;;;;;;30.00;19.33;;;;;;;;;;5013729;28;20022;-51
2023/12/17 04:52:13;;;;;;;25.53;18.63;;;;;;;;;;5013642;28;20408;-48
2023/12/17 04:54:39;;;;;;;33.93;21.83;;;;;;;;;;5013551;28;20061;-51
2023/12/17 04:57:05;;;;;;;34.97;21.73;;;;;;;;;;5013631;28;20029;-51
2023/12/17 04:59:31;;;;;;;36.13;21.80;;;;;;;;;;5013394;28;20448;-51
2023/12/17 05:01:57;;;;;;;39.70;23.07;;;;;;;;;;5013685;28;20042;-53
2023/12/17 05:04:23;;;;;;;40.63;24.10;;;;;;;;;;5013308;28;20476;-49
2023/12/17 05:06:49;;;;;;;50.07;25.23;;;;;;;;;;5011875;28;20073;-52
2023/12/17 05:09:15;;;;;;;43.90;24.23;;;;;;;;;;5013269;28;20057;-50
2023/12/17 05:11:41;;;;;;;42.63;24.23;;;;;;;;;;5011818;28;20026;-53
2023/12/17 05:14:07;;;;;;;39.27;23.77;;;;;;;;;;5023005;28;20081;-52
2023/12/17 05:16:33;;;;;;;41.30;23.10;;;;;;;;;;5016927;28;20054;-49
2023/12/17 05:18:59;;;;;;;40.10;23.20;;;;;;;;;;5013101;28;20022;-52
2023/12/17 05:21:25;;;;;;;39.17;22.73;;;;;;;;;;5013102;28;20033;-51
2023/12/17 05:23:51;;;;;;;39.37;23.90;;;;;;;;;;5013294;28;20033;-52
2023/12/17 05:26:17;;;;;;;43.67;24.07;;;;;;;;;;5013000;28;20523;-51
2023/12/17 05:28:42;;;;;;;45.27;24.90;;;23.70;99.90;;;;;;5012875;28;20022;-53
2023/12/17 05:31:09;;;;;;;50.10;26.47;;;22.60;99.90;;;;;;5012905;28;20022;-51
2023/12/17 05:33:35;;;;;;;52.17;25.67;;;22.40;99.90;;;;;;5012791;28;20021;-51
2023/12/17 05:36:01;;;;;;;42.23;24.27;;;22.40;99.90;;;;;;5012879;28;20022;-51
2023/12/17 05:38:29;;;;;;;43.20;22.87;;;22.40;99.90;;;;;;5012532;28;20513;-54
2023/12/17 05:40:55;;;;;;;39.80;22.97;;;22.40;99.90;;;;;;5011485;28;20018;-52
2023/12/17 05:43:20;;;;;;;45.40;26.07;;;22.40;99.90;;;;;;5012700;28;20118;-51
2023/12/17 05:45:46;;;;;;;44.77;24.43;;;22.40;99.90;;;;;;5012585;28;20064;-53
2023/12/17 05:48:14;;;;;;;43.43;24.07;;;22.50;99.90;;;;;;5012635;28;20061;-54
2023/12/17 05:50:40;;;;;;;45.17;24.73;;;22.40;99.90;;;;;;5011128;28;20022;-50
2023/12/17 05:53:06;;;;;;;44.57;23.37;;;22.50;99.90;;;;;;5011488;28;20041;-52
2023/12/17 05:55:31;;;;;;;44.23;25.07;;;22.50;99.90;;;;;;4999531;28;20026;-52
2023/12/17 05:57:57;;;;;;;48.70;25.53;;;22.40;99.90;;;;;;5012506;28;20060;-52
2023/12/17 06:00:22;;;;;;;49.37;25.37;;;22.50;99.90;;;;;;5012489;28;20018;-55
2023/12/17 06:02:48;;;;;;;43.43;23.30;;;22.50;99.90;;;;;;5012349;28;20487;-50
2023/12/17 06:05:13;;;;;;;44.50;23.70;;;22.30;99.90;;;;;;5011190;28;20026;-53
2023/12/17 06:07:39;;;;;;;43.57;23.60;;;22.30;99.90;;;;;;5000579;28;20046;-56
2023/12/17 06:10:05;;;;;;;44.23;24.43;;;22.30;99.90;;;;;;5012253;28;20302;-56
2023/12/17 06:12:31;;;;;;;47.97;25.47;;;22.40;99.90;;;;;;5022936;28;20072;-53
2023/12/17 06:14:56;;;;;;;43.37;25.63;;;22.30;99.90;;;;;;5015382;28;20116;-55
2023/12/17 06:17:22;;;;;;;54.27;24.47;;;22.50;99.90;;;;;;5012102;28;20061;-54
2023/12/17 06:19:48;;;;;;;39.47;23.30;;;22.40;99.90;;;;;;5012132;28;20340;-54
2023/12/17 06:22:16;;;;;;;41.80;23.47;;;22.40;99.90;;;;;;4994519;28;20022;-53
2023/12/17 06:24:41;;;;;;;42.47;22.70;;;22.40;99.90;;;;;;5012110;28;20029;-52
2023/12/17 06:27:15;;;;;;;43.07;22.40;;;22.40;99.90;;;;;;5025650;28;20033;-49
2023/12/17 06:29:40;;;;;;;40.90;21.70;;;22.40;99.90;;;;;;5012077;28;20022;-51
2023/12/17 06:32:07;;;;;;;35.80;22.50;;;22.40;99.90;;;;;;5011903;28;20522;-51
2023/12/17 06:34:33;;;;;;;34.13;21.33;;;22.30;99.90;;;;;;5012150;28;20025;-53
2023/12/17 06:37:00;;;;;;;36.00;22.50;;;22.30;99.90;;;;;;5012027;28;20088;-51
2023/12/17 06:39:26;;;;;;;36.67;21.93;;;22.40;99.90;;;;;;5011902;28;20026;-54
2023/12/17 06:41:51;;;;;;;35.00;21.60;;;22.40;99.90;;;;;;5010480;28;20049;-55
2023/12/17 06:44:17;;;;;;;35.63;20.47;;;22.40;99.90;;;;;;5010444;28;20103;-53
2023/12/17 06:46:42;;;;;;;33.60;20.83;;;22.40;99.90;;;;;;5011924;28;20022;-50
2023/12/17 06:49:08;;;;;;;30.20;20.37;;;22.40;99.90;;;;;;5012054;28;20028;-53
2023/12/17 06:51:39;;;;;;;28.67;19.50;;;22.40;99.90;;;;;;5011846;28;20393;-50
2023/12/17 06:54:06;;;;;;;27.20;19.53;;;22.50;99.90;;;;;;5011735;28;20018;-52
2023/12/17 06:56:31;;;;;;;29.57;19.40;;;22.50;99.90;;;;;;5011735;28;20025;-52
2023/12/17 06:58:57;;;;;;;31.70;20.60;;;22.50;99.90;;;;;;5011842;28;20026;-52
2023/12/17 07:01:22;;;;;;;31.67;19.70;;;22.60;99.90;;;;;;5011902;28;20372;-53
2023/12/17 07:03:49;;;;;;;35.63;20.77;;;22.50;99.90;;;;;;5011918;28;20030;-52
2023/12/17 07:06:14;;;;;;;32.63;20.53;;;22.60;99.90;;;;;;5025636;28;20491;-50
2023/12/17 07:08:41;;;;;;;33.50;21.50;;;22.50;99.90;;;;;;5015463;28;20029;-51
2023/12/17 07:11:07;;;;;;;31.23;19.90;;;22.60;99.90;;;;;;5015423;28;20018;-52
2023/12/17 07:13:32;;;;;;;28.77;19.77;;;22.50;99.90;;;;;;5015340;28;20428;-51
2023/12/17 07:15:58;;;;;;;32.10;19.47;;;22.50;99.90;;;;;;5015150;28;20586;-52
2023/12/17 07:18:24;;;;;;;28.23;19.67;;;22.50;99.90;;;;;;5015261;28;20033;-54
2023/12/17 07:20:50;;;;;;;28.93;19.23;;;22.50;99.90;;;;;;5015378;28;20475;-51
2023/12/17 07:23:16;;;;;;;29.00;19.33;;;22.60;99.90;;;;;;5013968;28;20157;-49
2023/12/17 07:25:41;;;;;;;27.70;19.87;;;22.50;99.90;;;;;;5015420;28;20536;-50
2023/12/17 07:28:07;;;;;;;28.00;18.73;;;22.40;99.90;;;;;;5015484;28;20116;-55
2023/12/17 07:30:33;;;;;;;26.27;18.40;;;22.50;99.90;;;;;;5015329;28;20124;-51
2023/12/17 07:32:59;;;;;;;27.23;18.00;;;22.50;99.90;;;;;;5015260;28;20026;-52
2023/12/17 07:35:26;;;;;;;23.93;17.37;;;22.50;99.90;;;;;;5013664;28;20079;-54
2023/12/17 07:37:51;;;;;;;23.97;17.50;;;22.50;99.90;;;;;;5015136;28;20025;-54
2023/12/17 07:40:17;;;;;;;22.87;17.67;;;22.60;99.90;;;;;;5015012;28;20029;-53
2023/12/17 07:42:42;;;;;;;22.60;16.50;;;22.50;99.90;;;;;;5014921;28;20037;-55
2023/12/17 07:45:09;;;;;;;20.47;16.27;;;22.60;99.90;;;;;;5014159;28;20042;-54
2023/12/17 07:47:35;;;;;;;23.57;17.60;;;22.50;99.90;;;;;;5016987;28;20042;-55
2023/12/17 07:50:00;;;;;;;21.23;16.20;;;22.50;99.90;;;;;;5016060;28;20021;-52
2023/12/17 07:52:26;;;;;;;21.83;16.20;;;22.50;99.90;;;;;;5033944;28;20029;-55
2023/12/17 07:54:55;;;;;;;20.87;16.33;;;22.50;99.90;;;;;;5029849;28;20029;-51
2023/12/17 07:57:20;;;;;;;20.63;16.07;;;22.50;99.90;;;;;;5014953;28;20029;-55
2023/12/17 07:59:51;;;;;;;20.87;16.43;;;22.50;99.90;;;;;;5016413;28;20037;-55
2023/12/17 08:02:17;;;;;;;21.10;14.63;;;22.50;99.90;;;;;;5013434;28;20143;-55
2023/12/17 08:04:43;;;;;;;22.07;15.37;;;22.60;99.90;;;;;;5033838;28;20026;-52
2023/12/17 08:07:12;;;;;;;16.77;14.93;;;22.50;99.90;;;;;;5014366;28;20033;-54
2023/12/17 08:09:37;;;;;;;21.13;16.37;;;22.50;99.90;;;;;;5011311;28;20192;-54
2023/12/17 08:12:05;;;;;;;23.13;16.17;;;22.60;99.90;;;;;;5014296;28;20502;-51
2023/12/17 08:14:31;;;;;;;19.37;16.20;;;22.70;99.90;;;;;;5008574;28;20476;-52
2023/12/17 08:16:56;;;;;;;21.50;16.07;;;22.60;99.90;;;;;;5011220;28;20057;-51
2023/12/17 08:19:22;;;;;;;21.33;15.87;;;22.70;99.90;;;;;;5012974;28;20030;-52
2023/12/17 08:21:47;;;;;;;20.47;16.30;;;22.70;99.90;;;;;;5014109;28;20034;-51
2023/12/17 08:24:13;;;;;;;22.43;16.87;;;22.70;99.90;;;;;;5014191;28;20029;-49
2023/12/17 08:26:38;;;;;;;22.60;16.37;;;22.70;99.90;;;;;;5014132;28;20486;-52
2023/12/17 08:29:04;;;;;;;24.60;17.97;;;22.70;99.90;;;;;;5014096;28;20045;-52
2023/12/17 08:31:30;;;;;;;20.03;15.40;;;22.70;99.90;;;;;;5014059;28;20022;-53
2023/12/17 08:33:55;;;;;;;22.70;17.17;;;22.70;99.90;;;;;;5013850;28;20030;-51
2023/12/17 08:36:23;;;;;;;22.00;16.87;;;22.50;99.90;;;;;;5014116;28;20025;-53
2023/12/17 08:38:48;;;;;;;21.87;17.00;;;22.70;99.90;;;;;;5013699;28;20032;-52
2023/12/17 08:41:14;;;;;;;20.37;16.23;;;22.70;99.90;;;;;;5005350;28;20192;-54
2023/12/17 08:43:40;;;;;;;21.60;17.13;;;22.80;99.90;;;;;;5013822;28;20109;-53
2023/12/17 08:46:06;;;;;;;23.13;17.67;;;22.80;99.90;;;;;;5013843;28;20452;-50
2023/12/17 08:48:31;;;;;;;22.00;18.90;;;22.90;99.90;;;;;;5013865;28;20059;-50
2023/12/17 08:50:57;;;;;;;24.87;18.50;;;22.90;99.90;;;;;;5013696;28;20025;-51
2023/12/17 08:53:23;;;;;;;24.97;17.90;;;22.80;99.90;;;;;;5013841;28;20030;-53
2023/12/17 08:55:49;;;;;;;22.80;17.60;;;22.90;99.90;;;;;;5013552;28;20061;-53
2023/12/17 08:58:16;;;;;;;22.33;18.40;;;22.90;99.90;;;;;;5013665;28;20515;-49
2023/12/17 09:00:42;;;;;;;22.47;18.57;;;22.90;99.90;;;;;;5013555;28;20018;-52
2023/12/17 09:03:07;;;;;;;20.80;17.73;;;23.00;99.90;;;;;;5012063;28;20040;-53
2023/12/17 09:05:35;;;;;;;26.23;20.47;;;22.90;99.90;;;;;;5013383;28;20014;-53
2023/12/17 09:08:01;;;;;;;21.07;17.63;;;22.90;99.90;;;;;;5013191;28;20045;-52
2023/12/17 09:10:26;;;;;;;25.70;18.63;;;23.00;99.90;;;;;;5012044;28;20113;-52
2023/12/17 09:12:52;;;;;;;23.63;19.10;;;22.90;99.90;;;;;;5013438;28;20117;-51
2023/12/17 09:15:17;;;;;;;21.87;18.80;;;23.00;99.90;;;;;;5013309;28;20032;-53
2023/12/17 09:17:43;;;;;;;25.83;18.60;;;23.10;99.90;;;;;;5013169;28;20060;-52
2023/12/17 09:20:10;;;;;;;23.60;19.07;;;23.10;99.90;;;;;;5013235;28;20021;-53
2023/12/17 09:22:35;;;;;;;25.40;19.33;;;23.00;99.90;;;;;;5013066;28;20487;-52
2023/12/17 09:25:01;;;;;;;20.43;17.60;;;23.10;99.90;;;;;;5009183;28;20017;-56
2023/12/17 09:27:27;;;;;;;22.93;18.93;;;23.10;99.90;;;;;;5013237;28;20038;-55
2023/12/17 09:29:52;;;;;;;23.30;18.87;;;23.10;99.90;;;;;;5012882;28;20037;-52
2023/12/17 09:32:18;;;;;;;27.67;18.87;;;23.10;99.90;;;;;;5012892;28;20067;-51
2023/12/17 09:34:43;;;;;;;26.03;19.07;;;23.10;99.90;;;;;;5012653;28;20133;-50
2023/12/17 09:37:09;;;;;;;23.60;18.97;;;23.20;99.90;;;;;;5012686;28;20068;-54
2023/12/17 09:39:35;;;;;;;26.00;18.93;;;23.20;99.90;;;;;;5012730;28;20391;-56
2023/12/17 09:42:00;;;;;;;25.77;18.73;;;23.20;99.90;;;;;;5012736;28;20018;-51
2023/12/17 09:44:27;;;;;;;27.13;19.50;;;23.20;99.90;;;;;;5012712;28;20100;-53
2023/12/17 09:46:52;;;;;;;24.90;20.37;;;23.20;99.90;;;;;;5008404;28;20034;-52
2023/12/17 09:49:18;;;;;;;25.17;18.73;;;23.30;99.90;;;;;;5011199;28;20033;-51
2023/12/17 09:51:47;;;;;;;25.63;19.03;;;23.30;99.90;;;;;;5012565;28;20434;-54
2023/12/17 09:54:13;;;;;;;24.23;18.90;;;23.40;99.90;;;;;;5012550;28;20033;-52
2023/12/17 09:56:38;;;;;;;24.57;19.27;;;23.30;99.90;;;;;;5012508;28;20042;-52
2023/12/17 09:59:04;;;;;;;26.30;18.67;;;23.40;99.90;;;;;;5011181;28;20145;-50
2023/12/17 10:01:30;;;;;;;24.73;19.33;;;23.40;99.90;;;;;;5012450;28;20030;-51
2023/12/17 10:03:56;;;;;;;25.37;18.97;;;23.40;99.90;;;;;;5012378;28;20084;-53
2023/12/17 10:06:22;;;;;;;22.93;19.23;;;23.50;99.90;;;;;;5010899;28;20030;-53
2023/12/17 10:08:47;;;;;;;28.43;20.80;;;23.40;99.90;;;;;;5012229;28;20080;-51
2023/12/17 10:11:15;;;;;;;24.47;18.80;;;23.50;99.90;;;;;;5012269;28;20482;-53
2023/12/17 10:13:41;;;;;;;24.80;19.33;;;23.50;99.90;;;;;;5012498;28;20074;-50
2023/12/17 10:16:07;;;;;;;21.33;18.50;;;23.60;99.90;;;;;;5012127;28;20490;-51
2023/12/17 10:18:33;;;;;;;24.13;19.00;;;;;;;;;;5012483;28;20030;-55
2023/12/17 10:21:04;;;;;;;25.07;19.90;;;;;;;;;;5012579;28;20467;-54
2023/12/17 10:23:45;;;;;;;25.73;18.80;;;;;;;;;;5012211;28;20022;-56
2023/12/17 10:26:11;;;;;;;24.57;17.87;;;;;;;;;;5012312;28;20022;-53
2023/12/17 10:28:37;;;;;;;23.00;18.97;;;;;;;;;;5012170;28;20076;-56
2023/12/17 10:31:03;;;;;;;25.93;19.17;;;;;;;;;;5012010;28;20029;-55
2023/12/17 10:33:33;;;;;;;22.40;18.40;;;;;;;;;;5012019;28;20075;-53
2023/12/17 10:35:59;;;;;;;22.43;18.20;;;;;;;;;;5010622;28;20022;-54
2023/12/17 10:38:26;;;;;;;24.20;18.27;;;;;;;;;;5011742;28;20068;-54
2023/12/17 10:40:52;;;;;;;23.93;18.63;;;;;;;;;;5011374;28;20507;-50
2023/12/17 10:43:18;;;;;;;25.27;17.17;;;;;;;;;;5011981;28;20080;-50
2023/12/17 10:45:46;;;;;;;21.60;17.50;;;;;;;;;;5011797;28;20018;-53
2023/12/17 10:48:13;;;;;;;23.03;18.30;;;;;;;;;;5011772;28;20030;-56
2023/12/17 10:50:40;;;;;;;23.17;18.40;;;;;;;;;;5010254;28;20065;-50
2023/12/17 10:53:06;;;;;;;22.00;17.13;;;;;;;;;;5006179;28;20388;-55
2023/12/17 10:55:33;;;;;;;22.43;18.63;;;;;;;;;;5006866;28;20371;-54
2023/12/17 10:58:02;;;;;;;21.33;17.73;;;;;;;;;;5011860;28;20132;-54
2023/12/17 11:00:29;;;;;;;23.57;18.40;;;;;;;;;;5011873;28;20058;-52
2023/12/17 11:02:58;;;;;;;23.37;18.13;;;;;;;;;;5011605;28;20476;-53
2023/12/17 11:05:24;;;;;;;22.17;19.00;;;;;;;;;;5011781;28;20060;-51
2023/12/17 11:07:50;;;;;;;25.43;20.23;;;;;;;;;;5011260;28;20038;-53
2023/12/17 11:10:17;;;;;;;24.90;20.00;;;;;;;;;;5011610;28;20073;-54
2023/12/17 11:12:47;;;;;;;24.00;19.87;;;;;;;;;;5011746;28;20022;-57
2023/12/17 11:15:13;;;;;;;28.00;20.13;;;;;;;;;;5011481;28;20105;-57
2023/12/17 11:17:40;;;;;;;24.67;21.10;;;;;;;;;;5010202;28;20054;-54
2023/12/17 11:20:06;;;;;;;27.40;20.20;;;;;;;;;;5010059;28;20227;-53
2023/12/17 11:22:36;;;;;;;28.73;21.97;;;;;;;;;;5011625;28;20534;-54
2023/12/17 11:25:03;;;;;;;26.07;20.53;;;;;;;;;;5025573;28;20033;-55
2023/12/17 11:27:31;;;;;;;25.97;21.87;;;;;;;;;;5010158;28;20046;-50
2023/12/17 11:29:57;;;;;;;26.73;21.63;;;;;;;;;;5011723;28;20026;-51
2023/12/17 11:32:27;;;;;;;25.13;21.00;;;;;;;;;;5010363;28;20172;-54
2023/12/17 11:34:53;;;;;;;25.90;21.37;;;;;;;;;;5011431;28;20022;-53
2023/12/17 11:37:21;;;;;;;27.97;22.00;;;;;;;;;;5011187;28;20101;-53
2023/12/17 11:39:48;;;;;;;26.83;22.73;;;;;;;;;;5011421;28;20184;-52
2023/12/17 11:42:14;;;;;;;29.57;23.87;;;;;;;;;;5011331;28;20076;-53
2023/12/17 11:44:47;;;;;;;29.57;23.93;;;;;;;;;;5011234;28;20415;-54
2023/12/17 11:47:14;;;;;;;26.70;22.57;;;;;;;;;;5009889;28;20494;-54
2023/12/17 11:49:40;;;;;;;35.17;24.57;;;;;;;;;;5011359;28;20072;-54
2023/12/17 11:52:19;;;;;;;28.23;23.63;;;;;;;;;;5011593;28;20431;-56
2023/12/17 11:54:45;;;;;;;32.27;23.80;;;;;;;;;;5014871;28;20479;-52
2023/12/17 11:57:24;;;;;;;29.67;23.67;;;;;;;;;;5014732;28;20033;-51
2023/12/17 11:59:50;;;;;;;26.97;22.67;;;;;;;;;;5014714;28;20033;-53
2023/12/17 12:02:21;;;;;;;30.40;23.60;;;;;;;;;;5014721;28;20184;-52
2023/12/17 12:04:47;;;;;;;28.27;24.03;;;;;;;;;;5014715;28;20037;-53
2023/12/17 12:07:17;;;;;;;29.37;24.33;;;;;;;;;;5014571;28;20049;-53
2023/12/17 12:09:44;;;;;;;32.10;25.97;;;;;;;;;;5014786;28;20032;-55
2023/12/17 12:12:16;;;;;;;31.43;25.93;;;;;;;;;;5013315;28;20026;-51
2023/12/17 12:14:44;;;;;;;33.47;25.30;;;;;;;;;;5014527;28;20124;-53
2023/12/17 12:17:29;;;;;;;31.13;25.43;;;;;;;;;;5007886;28;20149;-52
2023/12/17 12:19:56;;;;;;;35.50;26.03;;;;;;;;;;5010182;28;20029;-55
2023/12/17 12:22:27;;;;;;;34.70;26.83;;;;;;;;;;5013077;28;20033;-53
2023/12/17 12:24:55;;;;;;;31.87;25.83;;;;;;;;;;5014220;28;20495;-53
2023/12/17 12:27:21;;;;;;;36.07;28.13;;;;;;;;;;5014359;28;20040;-52
2023/12/17 12:29:48;;;;;;;40.60;29.37;;;;;;;;;;5013986;28;20120;-51
2023/12/17 12:32:25;;;;;;;35.43;27.70;;;;;;;;;;5011438;28;20101;-53
2023/12/17 12:34:53;;;;;;;36.83;28.00;;;;;;;;;;5010998;28;20022;-56
2023/12/17 12:37:35;;;;;;;33.40;28.03;;;;;;;;;;5010753;28;20026;-55
2023/12/17 12:40:01;;;;;;;34.93;27.13;;;;;;;;;;5016953;28;20017;-52
2023/12/17 12:42:29;;;;;;;34.07;26.67;;;;;;;;;;5006384;28;20108;-56
2023/12/17 12:44:55;;;;;;;35.63;27.57;;;;;;;;;;5021553;28;20604;-54
2023/12/17 12:47:22;;;;;;;35.80;29.43;;;;;;;;;;5024928;28;20042;-55
2023/12/17 12:49:48;;;;;;;38.53;27.67;;;;;;;;;;5016295;28;20049;-54
2023/12/17 12:52:14;;;;;;;38.63;27.93;;;;;;;;;;5014091;28;20038;-54
2023/12/17 12:54:40;;;;;;;40.20;29.00;;;;;;;;;;5013811;28;20434;-54
2023/12/17 12:57:06;;;;;;;40.03;30.30;;;;;;;;;;5026421;28;20029;-52
2023/12/17 12:59:31;;;;;;;40.70;30.37;;;;;;;;;;5013974;28;20038;-54
2023/12/17 13:01:58;;;;;;;38.00;30.10;;;;;;;;;;5013508;28;20030;-56
2023/12/17 13:04:24;;;;;;;43.47;31.60;;;;;;;;;;5024078;28;20116;-56
2023/12/17 13:06:50;;;;;;;42.67;30.13;;;;;;;;;;5015677;28;20068;-55
2023/12/17 13:09:16;;;;;;;38.87;30.27;;;;;;;;;;5011907;28;20029;-55
2023/12/17 13:11:42;;;;;;;36.97;28.23;;;;;;;;;;5014391;28;20037;-53
2023/12/17 13:14:08;;;;;;;43.27;31.70;;;;;;;;;;5033073;28;20525;-52
2023/12/17 13:16:34;;;;;;;37.13;27.90;;;;;;;;;;5019932;28;20124;-52
2023/12/17 13:19:00;;;;;;;33.33;27.03;;;;;;;;;;5011856;28;20392;-53
2023/12/17 13:21:26;;;;;;;37.37;27.50;;;;;;;;;;5013257;28;20026;-51
2023/12/17 13:23:53;;;;;;;42.30;28.47;;;;;;;;;;5013073;28;20033;-52
2023/12/17 13:26:19;;;;;;;42.47;31.10;;;;;;;;;;5013154;28;20120;-53